Terminal Aerodrome Forecast
Issued by NWS Dodge City, KS

Home | Current Version | Previous Version | Graphics & Text | Print | Product List | Glossary Off
Versions: 1 2 3 4 5 6 7 8 9 10 11 12 13 14 15 16 17 18 19 20 21 22 23 24 25 26 27 28 29 30 31 32 33 34 35 36 37 38 39 40 41 42 43 44 45 46 47 48 49 50

000
FTUS43 KDDC 220730 AAB
TAFDDC
TAF AMD
KDDC 220730Z 2208/2306 15017G23KT P6SM OVC009
     FM220900 16016KT 4SM BR OVC004
     FM221800 18022KT P6SM OVC015
     FM222100 17025KT P6SM OVC050 PROB30 2221/2224 P6SM TSRA
      BKN050CB
     FM230300 17019KT P6SM VCSH BKN015=

USA.gov is the U.S. government's official web portal to all federal, state and local government web resources and services.